createdAt,value
2017-12-29T00:01:18.627Z,8.53
2017-12-29T00:03:46.725Z,8.43
2017-12-29T00:06:15.072Z,8.27
2017-12-29T00:08:43.161Z,6.57
2017-12-29T00:11:11.377Z,8.73
2017-12-29T00:13:39.523Z,5.13
2017-12-29T00:16:07.625Z,10.00
2017-12-29T00:18:35.807Z,8.30
2017-12-29T00:21:03.996Z,7.53
2017-12-29T00:23:32.421Z,5.70
2017-12-29T00:26:00.553Z,7.13
2017-12-29T00:28:28.656Z,4.87
2017-12-29T00:30:56.992Z,8.90
2017-12-29T00:33:25.216Z,6.43
2017-12-29T00:35:53.306Z,8.70
2017-12-29T00:38:21.403Z,7.87
2017-12-29T00:40:49.553Z,6.23
2017-12-29T00:43:18.466Z,10.00
2017-12-29T00:45:46.638Z,5.53
2017-12-29T00:48:15.555Z,7.57
2017-12-29T00:50:43.733Z,9.60
2017-12-29T00:53:12.623Z,9.70
2017-12-29T00:55:41.610Z,8.07
2017-12-29T00:58:09.738Z,10.17
2017-12-29T01:00:37.909Z,7.63
2017-12-29T01:03:06.040Z,5.30
2017-12-29T01:05:34.185Z,7.00
2017-12-29T01:08:03.045Z,6.37
2017-12-29T01:10:31.170Z,6.83
2017-12-29T01:12:59.266Z,7.03
2017-12-29T01:15:27.375Z,7.23
2017-12-29T01:17:55.486Z,5.57
2017-12-29T01:20:23.596Z,5.97
2017-12-29T01:22:52.494Z,5.20
2017-12-29T01:25:21.378Z,4.93
2017-12-29T01:27:49.470Z,6.77
2017-12-29T01:30:17.586Z,5.90
2017-12-29T01:32:45.696Z,5.07
2017-12-29T01:35:13.815Z,5.27
2017-12-29T01:37:41.897Z,8.83
2017-12-29T01:40:10.042Z,10.20
2017-12-29T01:42:38.141Z,4.57
2017-12-29T01:45:06.265Z,6.20
2017-12-29T01:47:46.396Z,6.60
2017-12-29T01:50:15.428Z,7.07
2017-12-29T01:52:43.515Z,6.23
2017-12-29T01:55:11.626Z,5.47
2017-12-29T01:57:39.732Z,6.67
2017-12-29T02:00:07.819Z,8.70
2017-12-29T02:02:36.149Z,5.43
2017-12-29T02:05:04.238Z,9.50
2017-12-29T02:07:32.541Z,9.43
2017-12-29T02:10:01.396Z,9.10
2017-12-29T02:12:29.496Z,7.47
2017-12-29T02:14:57.616Z,5.20
2017-12-29T02:17:26.512Z,9.70
2017-12-29T02:19:54.621Z,4.53
2017-12-29T02:22:23.363Z,11.50
2017-12-29T02:24:51.532Z,5.90
2017-12-29T02:27:19.665Z,5.40
2017-12-29T02:29:48.565Z,11.40
2017-12-29T02:32:16.673Z,5.90
2017-12-29T02:34:44.796Z,7.03
2017-12-29T02:37:13.025Z,8.13
2017-12-29T02:39:41.901Z,5.90
2017-12-29T02:42:10.016Z,5.73
2017-12-29T02:44:38.893Z,5.37
2017-12-29T02:47:07.041Z,5.93
2017-12-29T02:49:35.217Z,5.03
2017-12-29T02:52:03.331Z,7.73
2017-12-29T02:54:31.476Z,10.03
2017-12-29T02:56:59.781Z,11.47
2017-12-29T02:59:27.900Z,7.93
2017-12-29T03:01:56.005Z,4.27
2017-12-29T03:04:24.872Z,9.50
2017-12-29T03:06:53.031Z,6.47
2017-12-29T03:09:21.166Z,9.60
2017-12-29T03:11:49.281Z,4.50
2017-12-29T03:14:18.144Z,4.20
2017-12-29T03:16:46.246Z,4.53
2017-12-29T03:19:14.684Z,6.67
2017-12-29T03:21:42.805Z,5.50
2017-12-29T03:24:10.908Z,8.93
2017-12-29T03:26:40.987Z,4.70
2017-12-29T03:29:09.172Z,4.13
2017-12-29T03:31:37.304Z,5.03
2017-12-29T03:34:05.525Z,6.07
2017-12-29T03:36:34.162Z,5.70
2017-12-29T03:39:02.280Z,4.40
2017-12-29T03:41:30.420Z,5.37
2017-12-29T03:43:58.514Z,4.07
2017-12-29T03:46:26.607Z,2.87
2017-12-29T03:48:54.718Z,4.40
2017-12-29T03:51:22.913Z,4.60
2017-12-29T03:53:50.998Z,7.50
2017-12-29T03:56:19.089Z,5.53
2017-12-29T03:58:47.224Z,5.10
2017-12-29T04:01:15.713Z,8.03
2017-12-29T04:03:43.886Z,2.83
2017-12-29T04:06:12.041Z,3.20
2017-12-29T04:08:40.130Z,5.53
2017-12-29T04:11:08.294Z,4.07
2017-12-29T04:13:37.194Z,4.07
2017-12-29T04:16:06.080Z,4.27
2017-12-29T04:18:34.166Z,3.50
2017-12-29T04:21:02.280Z,3.47
2017-12-29T04:23:30.383Z,4.03
2017-12-29T04:25:58.480Z,5.23
2017-12-29T04:28:26.648Z,6.33
2017-12-29T04:30:54.755Z,4.97
2017-12-29T04:33:22.902Z,2.60
2017-12-29T04:35:51.049Z,2.87
2017-12-29T04:38:19.213Z,3.30
2017-12-29T04:40:47.424Z,4.60
2017-12-29T04:43:15.544Z,4.20
2017-12-29T04:45:43.659Z,5.23
2017-12-29T04:48:11.798Z,6.47
2017-12-29T04:50:40.706Z,2.60
2017-12-29T04:53:08.844Z,4.73
2017-12-29T04:55:36.941Z,4.90
2017-12-29T04:58:05.029Z,4.50
2017-12-29T05:00:33.131Z,3.27
2017-12-29T05:03:01.322Z,5.63
2017-12-29T05:05:29.522Z,4.37
2017-12-29T05:07:57.655Z,3.67
2017-12-29T05:10:25.775Z,6.60
2017-12-29T05:12:53.889Z,3.30
2017-12-29T05:15:21.984Z,6.17
2017-12-29T05:17:50.084Z,6.67
2017-12-29T05:20:18.197Z,4.10
2017-12-29T05:22:46.329Z,3.43
2017-12-29T05:25:14.458Z,5.80
2017-12-29T05:27:43.525Z,4.27
2017-12-29T05:30:11.693Z,3.63
2017-12-29T05:32:39.850Z,2.90
2017-12-29T05:35:07.970Z,3.83
2017-12-29T05:37:36.085Z,4.80
2017-12-29T05:40:04.537Z,5.07
2017-12-29T05:42:33.404Z,3.00
2017-12-29T05:45:01.617Z,4.03
2017-12-29T05:47:30.552Z,5.63
2017-12-29T05:49:58.663Z,3.27
2017-12-29T05:52:26.948Z,4.17
2017-12-29T05:54:55.103Z,5.70
2017-12-29T05:57:23.977Z,5.57
2017-12-29T05:59:52.122Z,5.00
2017-12-29T06:02:20.308Z,6.47
2017-12-29T06:04:48.562Z,5.53
2017-12-29T06:07:16.665Z,5.07
2017-12-29T06:09:44.813Z,5.10
2017-12-29T06:12:13.683Z,5.90
2017-12-29T06:14:42.204Z,4.47
2017-12-29T06:17:10.331Z,9.33
2017-12-29T06:19:38.460Z,6.43
2017-12-29T06:22:06.536Z,5.67
2017-12-29T06:24:34.709Z,7.57
2017-12-29T06:27:03.082Z,12.97
2017-12-29T06:29:31.201Z,8.37
2017-12-29T06:31:59.324Z,7.60
2017-12-29T06:34:27.509Z,6.50
2017-12-29T06:36:55.619Z,4.80
2017-12-29T06:39:23.715Z,5.60
2017-12-29T06:41:51.918Z,10.10
2017-12-29T06:44:20.133Z,9.63
2017-12-29T06:46:48.995Z,8.07
2017-12-29T06:49:17.207Z,7.27
2017-12-29T06:51:45.389Z,9.50
2017-12-29T06:54:13.494Z,6.93
2017-12-29T06:56:42.493Z,5.80
2017-12-29T06:59:10.581Z,7.33
2017-12-29T07:01:38.739Z,5.90
2017-12-29T07:04:06.853Z,7.17
2017-12-29T07:06:35.293Z,8.17
2017-12-29T07:09:03.445Z,9.30
2017-12-29T07:11:31.535Z,7.67
2017-12-29T07:13:59.643Z,5.20
2017-12-29T07:16:27.762Z,5.40
2017-12-29T07:18:55.990Z,6.53
2017-12-29T07:21:24.104Z,6.57
2017-12-29T07:23:52.261Z,7.77
2017-12-29T07:26:20.445Z,9.03
2017-12-29T07:28:48.594Z,9.80
2017-12-29T07:31:16.694Z,7.07
2017-12-29T07:33:44.871Z,11.40
2017-12-29T07:36:13.766Z,11.73
2017-12-29T07:38:41.897Z,11.17
2017-12-29T07:41:10.013Z,16.60
2017-12-29T07:43:38.275Z,10.00
2017-12-29T07:46:06.376Z,10.77
2017-12-29T07:48:34.513Z,11.13
2017-12-29T07:51:03.545Z,10.63
2017-12-29T07:53:31.747Z,11.00
2017-12-29T07:55:59.841Z,9.77
2017-12-29T07:58:28.240Z,12.70
2017-12-29T08:00:56.447Z,14.33
2017-12-29T08:03:24.561Z,17.13
2017-12-29T08:05:52.687Z,15.23
2017-12-29T08:08:20.872Z,12.33
2017-12-29T08:10:49.014Z,12.67
2017-12-29T08:13:17.105Z,11.07
2017-12-29T08:15:45.226Z,17.50
2017-12-29T08:18:13.351Z,16.00
2017-12-29T08:20:42.309Z,13.70
2017-12-29T08:23:12.177Z,12.40
2017-12-29T08:25:40.269Z,12.17
2017-12-29T08:28:14.170Z,13.00
2017-12-29T08:30:38.119Z,11.83
2017-12-29T08:33:06.217Z,10.73
2017-12-29T08:35:34.361Z,14.03
2017-12-29T08:38:02.528Z,13.27
2017-12-29T08:40:30.788Z,17.87
2017-12-29T08:42:58.977Z,10.20
2017-12-29T08:45:27.109Z,11.60
2017-12-29T08:47:55.225Z,13.00
2017-12-29T08:50:24.287Z,16.97
2017-12-29T08:52:52.622Z,17.37
2017-12-29T08:55:20.777Z,12.00
2017-12-29T08:57:49.075Z,13.90
2017-12-29T09:00:17.269Z,11.63
2017-12-29T09:02:45.398Z,10.50
2017-12-29T09:05:13.521Z,13.07
2017-12-29T09:07:41.636Z,13.00
2017-12-29T09:10:09.851Z,10.27
2017-12-29T09:12:37.968Z,13.93
2017-12-29T09:15:06.163Z,14.27
2017-12-29T09:17:34.334Z,13.30
2017-12-29T09:20:04.523Z,10.43
2017-12-29T09:22:32.621Z,13.53
2017-12-29T09:25:00.881Z,11.33
2017-12-29T09:27:29.061Z,11.50
2017-12-29T09:29:57.221Z,14.60
2017-12-29T09:32:25.376Z,11.37
2017-12-29T09:34:53.489Z,13.10
2017-12-29T09:37:21.613Z,10.43
2017-12-29T09:39:49.824Z,13.07
2017-12-29T09:42:17.931Z,10.80
2017-12-29T09:44:46.177Z,14.80
2017-12-29T09:47:14.306Z,12.87
2017-12-29T09:49:43.530Z,14.87
2017-12-29T09:52:11.701Z,13.43
2017-12-29T09:54:40.446Z,12.17
2017-12-29T09:57:08.657Z,14.07
2017-12-29T09:59:36.894Z,11.50
2017-12-29T10:02:05.133Z,14.83
2017-12-29T10:04:33.374Z,11.53
2017-12-29T10:07:03.348Z,13.70
2017-12-29T10:09:35.826Z,13.83
2017-12-29T10:12:04.169Z,11.93
2017-12-29T10:14:32.282Z,12.60
2017-12-29T10:17:00.460Z,12.60
2017-12-29T10:19:30.280Z,13.27
2017-12-29T10:22:00.654Z,15.17
2017-12-29T10:24:28.989Z,13.00
2017-12-29T10:27:00.759Z,16.87
2017-12-29T10:29:29.429Z,11.47
2017-12-29T10:31:57.597Z,14.87
2017-12-29T10:34:26.142Z,11.90
2017-12-29T10:36:54.396Z,11.90
2017-12-29T10:39:23.323Z,14.83
2017-12-29T10:41:51.478Z,13.70
2017-12-29T10:44:19.635Z,10.63
2017-12-29T10:46:47.963Z,9.87
2017-12-29T10:49:16.039Z,11.43
2017-12-29T10:51:44.187Z,14.40
2017-12-29T10:54:12.335Z,13.93
2017-12-29T10:56:40.454Z,10.47
2017-12-29T10:59:08.581Z,12.90
2017-12-29T11:01:37.630Z,12.67
2017-12-29T11:04:05.845Z,12.93
2017-12-29T11:06:33.931Z,13.23
2017-12-29T11:09:02.097Z,14.53
2017-12-29T11:11:30.270Z,13.80
2017-12-29T11:13:58.492Z,14.07
2017-12-29T11:16:26.688Z,12.67
2017-12-29T11:18:54.857Z,15.93
2017-12-29T11:21:22.998Z,12.73
2017-12-29T11:23:51.245Z,11.53
2017-12-29T11:26:20.132Z,15.43
2017-12-29T11:28:48.286Z,13.07
2017-12-29T11:31:16.562Z,15.47
2017-12-29T11:33:44.951Z,16.30
2017-12-29T11:36:13.071Z,13.43
2017-12-29T11:38:41.301Z,14.57
2017-12-29T11:41:09.454Z,16.40
2017-12-29T11:43:37.656Z,17.00
2017-12-29T11:46:05.825Z,13.97
2017-12-29T11:48:33.927Z,15.57
2017-12-29T11:51:02.049Z,12.13
2017-12-29T11:53:30.233Z,13.00
2017-12-29T11:55:58.597Z,14.47
2017-12-29T11:58:26.782Z,16.10
2017-12-29T12:00:55.282Z,17.03
2017-12-29T12:03:24.613Z,15.27
2017-12-29T12:05:53.768Z,20.13
2017-12-29T12:08:23.166Z,16.03
2017-12-29T12:10:51.354Z,14.70
2017-12-29T12:13:19.525Z,16.50
2017-12-29T12:15:49.128Z,15.03
2017-12-29T12:18:17.282Z,15.83
2017-12-29T12:20:45.482Z,19.10
2017-12-29T12:23:13.595Z,13.40
2017-12-29T12:25:41.725Z,15.90
2017-12-29T12:28:09.919Z,13.60
2017-12-29T12:30:38.034Z,13.80
2017-12-29T12:33:06.252Z,12.47
2017-12-29T12:35:34.403Z,18.63
2017-12-29T12:38:02.916Z,16.03
2017-12-29T12:40:31.049Z,13.13
2017-12-29T12:42:59.253Z,13.57
2017-12-29T12:45:27.510Z,14.87
2017-12-29T12:47:55.702Z,15.30
2017-12-29T12:50:25.148Z,13.60
2017-12-29T12:52:54.733Z,14.50
2017-12-29T12:55:22.925Z,16.10
2017-12-29T12:57:51.106Z,13.33
2017-12-29T13:00:19.345Z,16.00
2017-12-29T13:02:47.472Z,12.60
2017-12-29T13:05:15.629Z,12.50
2017-12-29T13:07:56.640Z,10.77
2017-12-29T13:10:24.761Z,14.73
2017-12-29T13:12:53.634Z,10.80
2017-12-29T13:15:21.749Z,11.23
2017-12-29T13:17:50.717Z,9.60
2017-12-29T13:23:09.517Z,12.83
2017-12-29T13:25:37.724Z,11.70
2017-12-29T13:28:05.841Z,10.20
2017-12-29T13:30:33.935Z,10.30
2017-12-29T13:33:03.321Z,8.50
2017-12-29T13:35:34.227Z,8.73
2017-12-29T13:38:02.481Z,13.03
2017-12-29T13:40:30.958Z,6.30
2017-12-29T13:43:00.860Z,10.40
2017-12-29T13:45:29.710Z,7.83
2017-12-29T13:47:59.101Z,9.23
2017-12-29T13:50:30.755Z,6.20
2017-12-29T13:53:02.090Z,11.73
2017-12-29T13:55:30.261Z,7.90
2017-12-29T13:58:01.269Z,7.87
2017-12-29T14:00:30.346Z,6.57
2017-12-29T14:02:58.467Z,9.77
2017-12-29T14:05:27.115Z,11.13
2017-12-29T14:07:55.329Z,7.13
2017-12-29T14:10:23.545Z,10.20
2017-12-29T14:12:51.701Z,7.60
2017-12-29T14:15:20.757Z,10.83
2017-12-29T14:17:49.014Z,6.43
2017-12-29T14:20:17.215Z,9.37
2017-12-29T14:22:45.362Z,9.73
2017-12-29T14:25:14.919Z,8.00
2017-12-29T14:27:43.104Z,7.33
2017-12-29T14:30:11.245Z,7.50
2017-12-29T14:32:39.468Z,13.40
2017-12-29T14:35:07.998Z,9.60
2017-12-29T14:37:38.969Z,6.60
2017-12-29T14:40:07.163Z,6.10
2017-12-29T14:42:35.520Z,6.47
2017-12-29T14:45:03.752Z,8.50
2017-12-29T14:47:31.954Z,5.90
2017-12-29T14:50:00.346Z,10.20
2017-12-29T14:52:28.484Z,10.87
2017-12-29T14:54:56.806Z,6.60
2017-12-29T14:57:24.916Z,6.67
2017-12-29T14:59:53.063Z,7.43
2017-12-29T15:02:21.232Z,10.43
2017-12-29T15:04:49.357Z,7.53
2017-12-29T15:07:18.351Z,8.60
2017-12-29T15:09:46.513Z,5.30
2017-12-29T15:12:15.496Z,8.10
2017-12-29T15:14:43.600Z,5.80
2017-12-29T15:17:11.945Z,7.47
2017-12-29T15:19:40.317Z,5.60
2017-12-29T15:22:08.771Z,5.33
2017-12-29T15:24:37.058Z,5.40
2017-12-29T15:27:06.042Z,5.63
2017-12-29T15:29:34.805Z,5.10
2017-12-29T15:32:03.226Z,5.50
2017-12-29T15:34:31.309Z,5.53
2017-12-29T15:36:59.516Z,7.70
2017-12-29T15:39:27.762Z,6.13
2017-12-29T15:41:55.909Z,5.60
2017-12-29T15:44:24.029Z,6.43
2017-12-29T15:46:52.336Z,8.10
2017-12-29T15:49:20.472Z,6.07
2017-12-29T15:51:48.591Z,5.20
2017-12-29T15:54:16.753Z,6.33
2017-12-29T15:56:45.083Z,6.70
2017-12-29T15:59:13.360Z,3.43
2017-12-29T16:01:48.945Z,4.13
2017-12-29T16:04:17.412Z,7.00
2017-12-29T16:06:46.225Z,4.40
2017-12-29T16:09:15.838Z,3.73
2017-12-29T16:11:44.362Z,3.40
2017-12-29T16:14:13.570Z,3.97
2017-12-29T16:16:41.707Z,5.53
2017-12-29T16:19:09.849Z,4.77
2017-12-29T16:21:37.969Z,7.83
2017-12-29T16:24:06.109Z,4.13
2017-12-29T16:26:36.213Z,6.23
2017-12-29T16:29:04.290Z,4.60
2017-12-29T16:31:32.401Z,6.20
2017-12-29T16:34:00.622Z,5.23
2017-12-29T16:36:31.434Z,11.23
2017-12-29T16:39:00.885Z,4.20
2017-12-29T16:41:28.994Z,3.73
2017-12-29T16:43:57.207Z,4.40
2017-12-29T16:46:25.416Z,4.70
2017-12-29T16:48:53.554Z,4.10
2017-12-29T16:51:21.725Z,3.70
2017-12-29T16:53:49.850Z,3.83
2017-12-29T16:56:17.969Z,3.40
2017-12-29T16:58:46.097Z,3.93
2017-12-29T17:01:14.309Z,5.07
2017-12-29T17:03:42.584Z,4.30
2017-12-29T17:06:10.721Z,3.83
2017-12-29T17:08:38.894Z,4.67
2017-12-29T17:11:07.029Z,4.03
2017-12-29T17:13:35.199Z,3.63
2017-12-29T17:16:04.173Z,4.40
2017-12-29T17:18:32.785Z,4.17
2017-12-29T17:21:00.985Z,3.20
2017-12-29T17:23:29.096Z,4.67
2017-12-29T17:25:57.362Z,5.93
2017-12-29T17:28:25.459Z,4.73
2017-12-29T17:30:53.608Z,3.03
2017-12-29T17:33:21.712Z,4.80
2017-12-29T17:35:50.632Z,5.10
2017-12-29T17:38:18.760Z,3.43
2017-12-29T17:40:46.875Z,3.50
2017-12-29T17:43:15.758Z,4.43
2017-12-29T17:45:44.106Z,3.40
2017-12-29T17:48:12.185Z,4.47
2017-12-29T17:50:40.331Z,3.70
2017-12-29T17:53:08.563Z,4.30
2017-12-29T17:55:36.793Z,2.87
2017-12-29T17:58:05.070Z,4.30
2017-12-29T18:00:33.267Z,4.50
2017-12-29T18:03:01.381Z,5.50
2017-12-29T18:05:30.273Z,5.10
2017-12-29T18:07:58.383Z,5.53
2017-12-29T18:10:26.507Z,2.40
2017-12-29T18:12:54.712Z,3.93
2017-12-29T18:15:22.811Z,3.37
2017-12-29T18:17:50.952Z,2.60
2017-12-29T18:20:19.032Z,3.77
2017-12-29T18:22:48.070Z,7.30
2017-12-29T18:25:16.183Z,5.10
2017-12-29T18:27:46.105Z,3.60
2017-12-29T18:30:14.888Z,5.00
2017-12-29T18:32:43.891Z,4.53
2017-12-29T18:35:12.263Z,3.13
2017-12-29T18:37:40.351Z,4.57
2017-12-29T18:40:08.533Z,3.67
2017-12-29T18:42:37.403Z,3.10
2017-12-29T18:45:05.522Z,3.53
2017-12-29T18:47:33.685Z,4.43
2017-12-29T18:50:01.780Z,3.40
2017-12-29T18:52:29.917Z,3.77
2017-12-29T18:54:58.042Z,6.10
2017-12-29T18:57:26.240Z,4.40
2017-12-29T18:59:54.399Z,3.67
2017-12-29T19:02:29.356Z,3.30
2017-12-29T19:04:57.551Z,4.20
2017-12-29T19:07:25.673Z,2.73
2017-12-29T19:09:54.561Z,7.03
2017-12-29T19:12:22.670Z,3.70
2017-12-29T19:14:51.769Z,4.20
2017-12-29T19:17:19.894Z,4.63
2017-12-29T19:19:48.112Z,3.67
2017-12-29T19:22:16.203Z,4.20
2017-12-29T19:24:44.515Z,4.63
2017-12-29T19:27:12.605Z,3.40
2017-12-29T19:29:40.813Z,4.60
2017-12-29T19:32:09.085Z,3.43
2017-12-29T19:34:37.198Z,4.90
2017-12-29T19:37:05.308Z,3.27
2017-12-29T19:39:33.457Z,4.53
2017-12-29T19:42:01.670Z,3.53
2017-12-29T19:44:30.968Z,3.20
2017-12-29T19:46:59.306Z,4.30
2017-12-29T19:49:27.494Z,4.13
2017-12-29T19:51:55.641Z,3.40
2017-12-29T19:54:23.755Z,3.00
2017-12-29T19:56:51.953Z,2.80
2017-12-29T19:59:20.090Z,4.63
2017-12-29T20:01:48.266Z,5.33
2017-12-29T20:04:16.797Z,4.77
2017-12-29T20:06:44.922Z,3.13
2017-12-29T20:09:13.141Z,5.70
2017-12-29T20:11:42.518Z,3.40
2017-12-29T20:14:11.660Z,4.17
2017-12-29T20:16:39.796Z,8.33
2017-12-29T20:19:08.075Z,5.30
2017-12-29T20:21:36.406Z,3.37
2017-12-29T20:26:46.575Z,3.63
2017-12-29T20:29:15.507Z,4.20
2017-12-29T20:31:44.839Z,4.03
2017-12-29T20:34:16.100Z,4.70
2017-12-29T20:36:44.222Z,3.03
2017-12-29T20:39:13.747Z,3.33
2017-12-29T20:41:42.089Z,3.30
2017-12-29T20:47:26.624Z,3.37
2017-12-29T20:49:54.737Z,3.93
2017-12-29T20:52:23.600Z,4.63
2017-12-29T20:54:51.737Z,3.70
2017-12-29T20:57:19.914Z,3.70
2017-12-29T20:59:52.866Z,3.60
2017-12-29T21:02:21.024Z,3.63
2017-12-29T21:04:49.978Z,3.37
2017-12-29T21:07:19.915Z,3.17
2017-12-29T21:09:48.071Z,3.30
2017-12-29T21:12:19.229Z,6.90
2017-12-29T21:14:47.458Z,8.50
2017-12-29T21:17:15.596Z,2.70
2017-12-29T21:19:43.689Z,4.40
2017-12-29T21:22:11.800Z,3.57
2017-12-29T21:24:39.979Z,3.43
2017-12-29T21:27:08.168Z,4.20
2017-12-29T21:29:36.275Z,4.33
2017-12-29T21:32:04.394Z,4.23
2017-12-29T21:34:32.581Z,4.20
2017-12-29T21:37:00.748Z,4.70
2017-12-29T21:39:28.882Z,3.90
2017-12-29T21:41:58.877Z,3.17
2017-12-29T21:44:26.975Z,3.60
2017-12-29T21:46:56.134Z,3.60
2017-12-29T21:49:24.729Z,3.33
2017-12-29T21:51:52.841Z,3.73
2017-12-29T21:54:21.015Z,4.67
2017-12-29T21:56:49.134Z,4.23
2017-12-29T21:59:17.249Z,3.30
2017-12-29T22:01:45.353Z,3.30
2017-12-29T22:04:13.460Z,3.87
2017-12-29T22:06:41.621Z,4.73
2017-12-29T22:09:10.513Z,3.90
2017-12-29T22:11:39.564Z,3.50
2017-12-29T22:17:14.758Z,3.20
2017-12-29T22:19:42.868Z,3.60
2017-12-29T22:22:11.085Z,3.70
2017-12-29T22:24:39.189Z,4.00
2017-12-29T22:27:07.325Z,3.40
2017-12-29T22:29:35.452Z,6.40
2017-12-29T22:32:04.264Z,3.83
2017-12-29T22:34:32.402Z,4.27
2017-12-29T22:37:00.565Z,4.67
2017-12-29T22:39:28.688Z,5.00
2017-12-29T22:41:57.565Z,4.10
2017-12-29T22:44:25.689Z,4.23
2017-12-29T22:46:53.842Z,4.70
2017-12-29T22:49:21.990Z,4.93
2017-12-29T22:51:50.086Z,4.90
2017-12-29T22:54:18.321Z,4.17
2017-12-29T22:56:47.224Z,4.63
2017-12-29T22:59:15.411Z,4.53
2017-12-29T23:01:44.301Z,3.97
2017-12-29T23:04:12.437Z,4.43
2017-12-29T23:06:40.537Z,4.50
2017-12-29T23:09:08.654Z,4.60
2017-12-29T23:11:36.783Z,4.73
2017-12-29T23:14:04.910Z,3.90
2017-12-29T23:16:33.032Z,4.07
2017-12-29T23:19:01.195Z,5.67
2017-12-29T23:21:29.289Z,4.70
2017-12-29T23:23:57.393Z,5.70
2017-12-29T23:26:25.512Z,5.20
2017-12-29T23:28:53.609Z,9.13
2017-12-29T23:31:21.744Z,7.83
2017-12-29T23:33:49.846Z,7.50
2017-12-29T23:36:18.058Z,4.07
2017-12-29T23:38:46.199Z,4.43
2017-12-29T23:41:14.286Z,5.70
2017-12-29T23:43:43.657Z,5.40
2017-12-29T23:46:11.780Z,5.80
2017-12-29T23:48:39.885Z,4.07
2017-12-29T23:51:08.010Z,5.80
2017-12-29T23:53:36.165Z,5.30
2017-12-29T23:56:04.312Z,4.60
2017-12-29T23:58:32.428Z,4.33
